Time;durP1;ratioP1;P1;durP2;ratioP2;P2;SDS_P1;SDS_P2;PMS_P1;PMS_P2;Temp;Humidity;BMP_temperature;BMP_pressure;BME280_temperature;BME280_humidity;BME280_pressure;Samples;Min_cycle;Max_cycle;Signal;HPM_P1;HPM_P2
2022/12/26 08:03:36;;;;;;;8.20;3.75;;;;;;;-1.20;100.00;101774.52;1833313;75;28958;-91
2022/12/26 08:06:23;;;;;;;8.13;4.17;;;;;;;-1.02;100.00;101771.63;1798154;77;20978;-90
2022/12/26 08:09:14;;;;;;;18.27;7.53;;;;;;;-0.81;100.00;101771.61;1787726;78;21042;-90
2022/12/26 08:11:59;;;;;;;7.22;3.52;;;;;;;-0.68;100.00;101779.95;1802744;78;21002;-89
2022/12/26 08:14:44;;;;;;;9.85;4.90;;;;;;;-0.55;100.00;101778.05;1789462;78;21012;-88
2022/12/26 08:17:31;;;;;;;12.35;4.70;;;;;;;-0.44;100.00;101777.17;1731463;81;21026;-88
2022/12/26 08:20:16;;;;;;;5.55;3.22;;;;;;;-0.31;100.00;101775.78;1739779;80;21016;-87
2022/12/26 08:23:01;;;;;;;7.45;3.62;;;;;;;-0.21;100.00;101785.80;1766195;79;21041;-88
2022/12/26 08:25:45;;;;;;;8.58;4.20;;;;;;;-0.13;100.00;101772.82;1770013;79;21007;-89
2022/12/26 08:28:30;;;;;;;6.80;3.22;;;;;;;-0.11;100.00;101766.26;1795966;79;21013;-90
2022/12/26 08:31:15;;;;;;;5.50;3.12;;;;;;;-0.05;100.00;101760.19;1790411;79;21513;-92
2022/12/26 08:33:59;;;;;;;6.75;2.55;;;;;;;0.04;100.00;101756.93;1779339;79;21047;-92
2022/12/26 08:36:44;;;;;;;5.60;3.17;;;;;;;0.11;100.00;101754.38;1780748;79;21011;-91
2022/12/26 08:39:29;;;;;;;6.58;3.40;;;;;;;0.17;100.00;101756.34;1757752;79;20985;-92
2022/12/26 08:42:18;;;;;;;5.17;2.27;;;;;;;0.24;100.00;101761.33;1759435;80;21390;-92
2022/12/26 08:45:19;;;;;;;5.03;3.05;;;;;;;0.28;100.00;101765.34;1767733;79;21030;-92
2022/12/26 08:48:04;;;;;;;5.40;3.17;;;;;;;0.31;100.00;101762.29;1795989;79;21087;-91
2022/12/26 08:50:58;;;;;;;6.00;3.08;;;;;;;0.30;100.00;101751.73;1765657;78;82079;-94
2022/12/26 08:53:44;;;;;;;4.15;2.83;;;;;;;0.25;100.00;101756.30;1702088;83;22027;-91
2022/12/26 08:56:29;;;;;;;7.58;3.50;;;;;;;0.27;100.00;101747.52;1717862;82;21013;-92
2022/12/26 08:59:14;;;;;;;4.87;2.70;;;;;;;0.24;100.00;101741.68;1733608;80;21423;-93
2022/12/26 09:01:58;;;;;;;5.00;2.75;;;;;;;0.23;100.00;101757.49;1714740;82;21533;-91
2022/12/26 09:04:43;;;;;;;5.50;2.83;;;;;;;0.28;100.00;101753.25;1688091;83;21025;-93
2022/12/26 09:07:28;;;;;;;4.75;2.90;;;;;;;0.37;100.00;101756.69;1737407;80;21057;-92
2022/12/26 09:10:13;;;;;;;5.25;3.00;;;;;;;0.46;100.00;101752.09;1739024;81;21021;-91
2022/12/26 09:12:59;;;;;;;4.70;2.98;;;;;;;0.49;100.00;101749.87;1733423;81;21013;-93
2022/12/26 09:15:44;;;;;;;5.42;2.87;;;;;;;0.51;100.00;101753.22;1739624;81;21003;-91
2022/12/26 09:18:30;;;;;;;4.92;3.05;;;;;;;0.62;100.00;101750.11;1732981;82;21052;-91
2022/12/26 09:21:15;;;;;;;7.30;4.10;;;;;;;0.67;100.00;101742.84;1701786;82;20987;-94
2022/12/26 09:24:06;;;;;;;6.70;3.00;;;;;;;0.74;100.00;101741.58;1729698;80;21030;-92
2022/12/26 09:26:50;;;;;;;4.47;2.55;;;;;;;0.72;100.00;101745.82;1697212;82;20925;-92
2022/12/26 09:29:37;;;;;;;5.47;2.87;;;;;;;0.72;100.00;101743.61;1710127;82;21014;-92
2022/12/26 09:32:21;;;;;;;4.35;2.85;;;;;;;0.74;100.00;101746.48;1736957;81;21018;-93
2022/12/26 09:35:06;;;;;;;4.87;2.52;;;;;;;0.76;100.00;101748.45;1718251;82;21526;-94
2022/12/26 09:37:51;;;;;;;5.42;2.60;;;;;;;0.81;100.00;101751.94;1731181;80;21053;-92
2022/12/26 09:40:44;;;;;;;4.67;2.98;;;;;;;0.87;100.00;101747.19;1707717;83;21061;-92
2022/12/26 09:44:04;;;;;;;5.67;2.92;;;;;;;0.76;100.00;101743.07;1738973;80;21446;-92
2022/12/26 09:47:03;;;;;;;4.85;2.83;;;;;;;0.79;100.00;101740.03;1735807;81;21043;-91
2022/12/26 09:50:11;;;;;;;5.60;3.10;;;;;;;0.82;100.00;101739.66;1709443;82;21394;-92
2022/12/26 09:53:03;;;;;;;6.75;2.87;;;;;;;0.89;100.00;101737.56;1707283;82;21012;-93
2022/12/26 09:56:00;;;;;;;4.83;2.65;;;;;;;0.86;100.00;101736.91;1697667;84;21016;-92
2022/12/26 09:58:56;;;;;;;7.10;3.37;;;;;;;0.98;100.00;101732.44;1730997;81;21420;-92
2022/12/26 10:01:41;;;;;;;6.37;3.45;;;;;;;1.02;100.00;101733.75;1728164;81;21525;-93
2022/12/26 10:04:28;;;;;;;7.53;3.72;;;;;;;1.10;100.00;101735.52;1721706;81;20979;-93
2022/12/26 10:07:41;;;;;;;31.17;11.68;;;;;;;1.19;100.00;101729.02;1679775;83;21478;-92
2022/12/26 10:10:40;;;;;;;15.43;6.05;;;;;;;1.22;100.00;101728.13;1684714;83;21037;-94
2022/12/26 10:13:50;;;;;;;6.80;3.62;;;;;;;1.18;100.00;101728.16;1718205;82;20991;-92
2022/12/26 10:16:49;;;;;;;4.65;2.55;;;;;;;1.21;100.00;101721.56;1672368;83;21510;-92
2022/12/26 10:20:01;;;;;;;6.47;3.50;;;;;;;1.24;100.00;101717.17;1656096;84;21054;-94
2022/12/26 10:23:07;;;;;;;10.43;5.53;;;;;;;1.27;100.00;101716.28;1670843;84;21027;-92
2022/12/26 10:26:10;;;;;;;10.05;5.37;;;;;;;1.29;100.00;101714.23;1724619;81;22669;-93
2022/12/26 10:29:13;;;;;;;9.30;4.10;;;;;;;1.22;100.00;101713.31;1664655;83;21093;-93
2022/12/26 10:32:14;;;;;;;4.10;2.62;;;;;;;1.14;100.00;101710.73;1721543;83;21058;-94
2022/12/26 10:34:59;;;;;;;13.78;6.22;;;;;;;1.18;100.00;101710.66;1699942;82;21480;-92
2022/12/26 10:37:44;;;;;;;8.18;4.08;;;;;;;1.19;100.00;101706.96;1711492;82;21429;-92
2022/12/26 10:40:37;;;;;;;6.25;3.60;;;;;;;1.17;100.00;101703.61;1691805;83;21033;-92
2022/12/26 10:43:27;;;;;;;12.13;4.70;;;;;;;1.12;100.00;101700.65;1689242;84;21059;-92
2022/12/26 10:46:24;;;;;;;13.15;6.58;;;;;;;1.17;100.00;101699.58;1685601;84;21034;-94
2022/12/26 10:49:10;;;;;;;5.72;3.42;;;;;;;1.15;100.00;101692.70;1689370;84;21824;-93
2022/12/26 10:51:57;;;;;;;4.80;3.33;;;;;;;1.16;100.00;101689.81;1717318;81;20972;-93
2022/12/26 10:54:43;;;;;;;6.75;3.02;;;;;;;1.19;100.00;101689.45;1729613;81;20998;-92
2022/12/26 10:57:30;;;;;;;8.50;4.03;;;;;;;1.11;100.00;101688.19;1726018;82;21064;-93
2022/12/26 11:00:25;;;;;;;3.92;2.67;;;;;;;0.98;100.00;101683.98;1739873;81;21044;-93
2022/12/26 11:03:13;;;;;;;3.72;2.50;;;;;;;1.01;100.00;101688.98;1711809;82;21114;-93
2022/12/26 11:05:58;;;;;;;4.35;3.00;;;;;;;1.05;100.00;101684.91;1709241;82;21030;-93
2022/12/26 11:08:48;;;;;;;6.00;2.60;;;;;;;1.11;100.00;101697.61;1706413;80;21487;-94
2022/12/26 11:11:46;;;;;;;7.53;3.12;;;;;;;1.21;100.00;101690.59;1725816;82;21033;-93
2022/12/26 11:14:40;;;;;;;5.53;2.87;;;;;;;1.28;100.00;101687.48;1740021;81;21002;-92
2022/12/26 11:17:30;;;;;;;4.95;2.87;;;;;;;1.26;100.00;101685.48;1713752;82;21050;-94
2022/12/26 11:20:20;;;;;;;6.97;2.83;;;;;;;1.24;100.00;101691.59;1709640;82;20998;-94
2022/12/26 11:23:19;;;;;;;8.50;3.95;;;;;;;1.28;100.00;101684.27;1711794;82;21013;-93
2022/12/26 11:26:12;;;;;;;4.53;3.02;;;;;;;1.24;100.00;101684.34;1732942;81;21005;-94
2022/12/26 11:29:22;;;;;;;;;;;;;;;1.22;100.00;101682.34;1745922;80;21391;-92
2022/12/26 11:32:13;;;;;;;6.35;3.15;;;;;;;1.12;100.00;101680.45;1732644;82;20179;-92
2022/12/26 11:34:59;;;;;;;5.28;2.98;;;;;;;1.05;100.00;101674.14;1731860;81;21042;-93
2022/12/26 11:37:44;;;;;;;6.97;3.50;;;;;;;1.04;100.00;101680.56;1738491;80;20979;-92
2022/12/26 11:40:38;;;;;;;12.63;7.22;;;;;;;1.05;100.00;101682.22;1738304;81;20998;-94
2022/12/26 11:43:22;;;;;;;10.78;5.67;;;;;;;1.02;100.00;101689.33;1727365;80;21006;-93
2022/12/26 11:46:07;;;;;;;8.98;4.72;;;;;;;1.09;100.00;101688.91;1727983;81;21987;-93
2022/12/26 11:48:53;;;;;;;5.53;3.75;;;;;;;1.16;100.00;101689.81;1703530;82;21027;-92
2022/12/26 11:51:40;;;;;;;8.73;3.70;;;;;;;1.21;100.00;101687.42;1710967;82;21065;-92
2022/12/26 11:54:36;;;;;;;4.87;2.90;;;;;;;1.21;100.00;101687.42;1726578;81;21074;-94
2022/12/26 11:57:24;;;;;;;4.62;2.60;;;;;;;1.22;100.00;101689.59;1693067;82;21541;-93
2022/12/26 14:07:41;;;;;;;11.22;4.80;;;;;;;-1.98;100.00;101672.70;1819021;77;28884;-88
2022/12/26 14:11:03;;;;;;;8.70;4.30;;;;;;;-2.04;100.00;101671.18;1784043;78;21053;-88
2022/12/26 14:13:56;;;;;;;10.45;5.00;;;;;;;-2.04;100.00;101681.89;1790345;79;21039;-89
2022/12/26 14:17:07;;;;;;;10.23;4.85;;;;;;;-1.98;100.00;101679.88;1806879;78;21025;-89
2022/12/26 14:20:15;;;;;;;5.15;3.08;;;;;;;-1.94;100.00;101674.53;1746710;80;20983;-89
2022/12/26 14:23:30;;;;;;;8.38;3.80;;;;;;;-1.95;100.00;101665.66;1743924;81;21018;-89
2022/12/26 14:26:37;;;;;;;8.20;4.72;;;;;;;-1.93;100.00;101663.30;1734925;81;21120;-90
2022/12/26 14:29:42;;;;;;;16.90;7.12;;;;;;;-1.96;100.00;101656.44;1734643;81;21737;-89
2022/12/26 14:32:44;;;;;;;13.65;6.85;;;;;;;-1.96;100.00;101650.57;1785456;79;20987;-90
2022/12/26 14:35:57;;;;;;;16.35;6.92;;;;;;;-1.88;100.00;101657.80;1780006;79;21098;-90
2022/12/26 14:39:18;;;;;;;22.25;8.63;;;;;;;-1.88;100.00;101669.86;1706090;81;21382;-90
2022/12/26 14:45:33;;;;;;;16.02;7.15;;;;;;;-1.87;100.00;101673.36;1736640;81;21054;-92
2022/12/26 14:48:29;;;;;;;14.25;6.58;;;;;;;-1.85;100.00;101681.57;1748675;79;21520;-91
2022/12/26 14:51:28;;;;;;;10.65;6.58;;;;;;;-1.85;100.00;101682.91;1782655;79;20983;-92
2022/12/26 14:54:25;;;;;;;16.82;8.50;;;;;;;-1.82;100.00;101687.92;1744195;80;20995;-90
2022/12/26 14:57:46;;;;;;;23.18;11.25;;;;;;;-1.80;100.00;101683.75;1785244;79;20986;-91
2022/12/26 15:00:32;;;;;;;10.00;5.87;;;;;;;-1.78;100.00;101681.23;1753225;79;20979;-90
2022/12/26 15:03:58;;;;;;;11.00;5.03;;;;;;;-1.77;100.00;101672.69;1797669;78;21574;-89
2022/12/26 15:07:01;;;;;;;9.53;4.45;;;;;;;-1.76;100.00;101664.47;1776820;79;21014;-89
2022/12/26 15:10:17;;;;;;;10.15;4.85;;;;;;;-1.75;100.00;101677.38;1795219;79;21038;-92
2022/12/26 20:05:07;;;;;;;19.32;7.55;;;;;;;-2.07;100.00;101419.23;1807098;77;28851;-92
2022/12/26 20:07:52;;;;;;;21.20;9.13;;;;;;;-2.07;100.00;101415.22;1779654;78;20998;-90
2022/12/26 20:10:37;;;;;;;35.95;12.88;;;;;;;-1.93;100.00;101424.36;1750011;80;21048;-92
2022/12/26 20:13:21;;;;;;;40.60;15.70;;;;;;;-1.83;100.00;101411.62;1711262;80;20983;-89
2022/12/26 20:16:08;;;;;;;26.33;11.15;;;;;;;-1.69;100.00;101408.69;1724097;81;21030;-90
2022/12/26 20:18:52;;;;;;;20.32;7.55;;;;;;;-1.58;100.00;101412.84;1779244;79;21477;-90
2022/12/26 20:21:37;;;;;;;23.87;8.95;;;;;;;-1.44;100.00;101423.30;1774330;79;21003;-91
2022/12/26 20:24:22;;;;;;;18.85;7.97;;;;;;;-1.27;100.00;101418.68;1727933;81;21029;-90
2022/12/26 20:27:07;;;;;;;16.42;6.85;;;;;;;-1.15;100.00;101418.08;1788604;79;21434;-91
2022/12/26 20:29:51;;;;;;;17.50;8.10;;;;;;;-1.08;100.00;101419.55;1734199;81;21011;-93
2022/12/26 20:32:36;;;;;;;19.42;8.13;;;;;;;-1.06;100.00;101396.07;1716862;82;21046;-91
2022/12/26 20:35:23;;;;;;;18.60;8.03;;;;;;;-1.00;100.00;101395.34;1727688;82;21101;-90
2022/12/26 20:38:07;;;;;;;17.70;7.83;;;;;;;-0.85;100.00;101392.70;1734083;81;21120;-92
2022/12/26 20:40:52;;;;;;;19.20;7.75;;;;;;;-0.81;100.00;101387.30;1792781;79;20994;-90
2022/12/26 20:43:38;;;;;;;16.62;7.03;;;;;;;-0.79;100.00;101386.63;1780124;79;20987;-91
2022/12/26 20:46:27;;;;;;;15.53;7.33;;;;;;;-0.83;100.00;101371.89;1780313;79;21032;-92
2022/12/26 20:49:14;;;;;;;18.67;7.72;;;;;;;-0.64;100.00;101378.59;1794748;79;21026;-92
2022/12/26 20:51:58;;;;;;;16.07;7.30;;;;;;;-0.69;100.00;101383.68;1774859;79;20963;-90
2022/12/26 20:54:43;;;;;;;16.12;7.05;;;;;;;-0.69;100.00;101393.08;1793992;79;21037;-91
2022/12/26 20:57:27;;;;;;;18.20;6.83;;;;;;;-0.63;100.00;101395.53;1776697;79;20995;-91
2022/12/26 21:00:13;;;;;;;16.35;7.53;;;;;;;-0.59;100.00;101400.36;1778288;79;21576;-90
2022/12/26 21:02:58;;;;;;;16.82;7.30;;;;;;;-0.57;100.00;101396.98;1777950;79;21618;-90
2022/12/26 21:05:43;;;;;;;15.68;7.30;;;;;;;-0.51;100.00;101390.04;1772606;79;21552;-92
2022/12/26 21:08:28;;;;;;;16.52;6.50;;;;;;;-0.42;100.00;101385.41;1780501;79;20990;-91
2022/12/26 21:11:31;;;;;;;16.12;6.67;;;;;;;-0.45;100.00;101390.63;1774619;79;21030;-91
2022/12/26 21:14:19;;;;;;;16.12;7.10;;;;;;;-0.39;100.00;101388.57;1724183;82;21544;-91
2022/12/26 21:17:04;;;;;;;13.83;6.15;;;;;;;-0.21;100.00;101388.20;1709727;82;21004;-90
2022/12/26 21:19:51;;;;;;;19.85;7.42;;;;;;;-0.28;100.00;101374.67;1730409;81;21080;-92
2022/12/26 21:22:38;;;;;;;21.05;7.50;;;;;;;-0.22;100.00;101381.17;1723303;80;21011;-90
2022/12/26 21:25:23;;;;;;;16.23;6.80;;;;;;;-0.19;100.00;101371.91;1779001;79;21046;-91
2022/12/26 21:28:11;;;;;;;14.90;7.37;;;;;;;-0.19;100.00;101376.77;1778488;79;21005;-92
2022/12/26 21:30:56;;;;;;;18.05;6.78;;;;;;;-0.15;100.00;101371.32;1752921;79;21430;-91
2022/12/26 21:33:42;;;;;;;14.73;6.80;;;;;;;-0.14;100.00;101362.27;1763355;79;21545;-92
2022/12/26 21:36:27;;;;;;;16.40;7.00;;;;;;;-0.11;100.00;101363.23;1778613;79;20914;-91
2022/12/26 21:39:12;;;;;;;14.65;6.87;;;;;;;-0.06;100.00;101358.13;1778495;79;21432;-92
2022/12/26 21:41:56;;;;;;;14.18;5.45;;;;;;;-0.02;100.00;101362.11;1721536;81;21786;-89
2022/12/26 21:44:41;;;;;;;14.73;6.67;;;;;;;0.01;100.00;101360.08;1784333;79;20994;-89
2022/12/26 21:47:25;;;;;;;17.95;7.20;;;;;;;0.04;100.00;101340.88;1780708;79;21006;-91
2022/12/26 21:50:10;;;;;;;12.23;6.28;;;;;;;0.09;100.00;101332.56;1741532;80;21063;-91
2022/12/26 21:52:55;;;;;;;17.15;6.80;;;;;;;0.13;100.00;101326.32;1729382;82;21007;-90
2022/12/26 21:55:39;;;;;;;14.63;5.95;;;;;;;0.12;100.00;101332.19;1771638;79;20987;-90
2022/12/26 21:58:24;;;;;;;14.55;7.20;;;;;;;0.14;100.00;101332.00;1740841;80;21042;-89
2022/12/26 22:01:16;;;;;;;16.42;6.75;;;;;;;0.11;100.00;101326.50;1793358;79;21006;-89
2022/12/26 22:04:19;;;;;;;11.87;6.27;;;;;;;0.14;100.00;101314.02;1742186;80;21082;-89
2022/12/26 22:07:03;;;;;;;14.45;5.85;;;;;;;0.14;100.00;101305.13;1711845;82;26795;-89
2022/12/26 22:09:49;;;;;;;12.65;6.12;;;;;;;0.20;100.00;101296.32;1749283;80;21026;-90
2022/12/26 22:18:46;;;;;;;12.75;6.22;;;;;;;0.34;100.00;101268.52;1782555;78;21053;-88
2022/12/26 22:21:31;;;;;;;14.87;5.60;;;;;;;0.35;100.00;101271.55;1779063;79;21133;-90
2022/12/26 22:24:15;;;;;;;12.13;5.97;;;;;;;0.33;100.00;101276.80;1787747;78;21524;-90
2022/12/26 22:27:00;;;;;;;13.58;5.70;;;;;;;0.31;100.00;101275.64;1778133;79;21421;-90
2022/12/26 22:29:44;;;;;;;12.85;6.03;;;;;;;0.35;100.00;101280.14;1794131;79;20934;-89
2022/12/26 22:32:29;;;;;;;12.05;6.15;;;;;;;0.37;100.00;101266.82;1730915;81;20969;-90
